Time;durP1;ratioP1;P1;durP2;ratioP2;P2;SDS_P1;SDS_P2;PMS_P1;PMS_P2;Temp;Humidity;BMP_temperature;BMP_pressure;BME280_temperature;BME280_humidity;BME280_pressure;Samples;Min_cycle;Max_cycle;Signal;HPM_P1;HPM_P2
2023/09/26 00:03:26;;;;;;;6.40;2.10;;;18.70;99.90;;;;;;10091006;28;20029;-71
2023/09/26 00:08:18;;;;;;;3.83;2.33;;;18.50;99.90;;;;;;10089882;28;20207;-72
2023/09/26 00:13:08;;;;;;;5.10;2.35;;;18.50;99.90;;;;;;10086542;28;20160;-72
2023/09/26 00:17:59;;;;;;;4.35;2.25;;;18.40;99.90;;;;;;10094139;28;20045;-74
2023/09/26 00:22:50;;;;;;;4.32;2.00;;;18.20;99.90;;;;;;10090391;28;20550;-73
2023/09/26 00:27:41;;;;;;;7.50;2.30;;;18.40;99.90;;;;;;10090974;28;20116;-73
2023/09/26 00:32:32;;;;;;;4.32;2.67;;;18.20;99.90;;;;;;10077596;28;20132;-72
2023/09/26 00:37:22;;;;;;;6.72;3.17;;;18.20;99.90;;;;;;10080907;28;20067;-71
2023/09/26 00:42:14;;;;;;;6.18;2.78;;;18.10;99.90;;;;;;10101614;28;20365;-72
2023/09/26 00:47:05;;;;;;;4.18;2.47;;;18.10;99.90;;;;;;10099026;28;20040;-72
2023/09/26 00:51:58;;;;;;;3.42;1.85;;;18.00;99.90;;;;;;10105481;28;20156;-71
2023/09/26 00:56:50;;;;;;;3.50;2.28;;;18.00;99.90;;;;;;10085839;28;20349;-72
2023/09/26 01:01:41;;;;;;;4.20;2.40;;;17.80;99.90;;;;;;10094259;28;20032;-71
2023/09/26 01:06:32;;;;;;;3.28;2.13;;;17.80;99.90;;;;;;10104719;28;20041;-72
2023/09/26 01:11:23;;;;;;;2.55;2.00;;;17.80;99.90;;;;;;10102353;28;20452;-71
2023/09/26 01:16:15;;;;;;;2.85;2.20;;;17.70;99.90;;;;;;10092706;28;20063;-72
2023/09/26 01:21:06;;;;;;;3.33;1.98;;;17.50;99.90;;;;;;10094749;28;20052;-71
2023/09/26 01:25:57;;;;;;;4.03;2.60;;;17.60;99.90;;;;;;10101708;28;20040;-71
2023/09/26 01:30:48;;;;;;;3.15;2.03;;;17.50;99.90;;;;;;10093887;28;20078;-73
2023/09/26 01:35:38;;;;;;;3.95;2.45;;;17.50;99.90;;;;;;10094631;28;20479;-74
2023/09/26 01:40:29;;;;;;;3.78;2.35;;;17.40;99.90;;;;;;10096230;28;20035;-73
2023/09/26 01:45:20;;;;;;;4.45;2.50;;;17.30;99.90;;;;;;10088371;28;20441;-71
2023/09/26 01:50:11;;;;;;;4.88;2.28;;;17.30;99.90;;;;;;10091231;28;20025;-72
2023/09/26 01:55:06;;;;;;;3.75;2.40;;;17.10;99.90;;;;;;10082931;28;20044;-72
2023/09/26 02:00:10;;;;;;;6.53;2.30;;;17.10;99.90;;;;;;10090294;28;20037;-73
2023/09/26 02:05:01;;;;;;;4.15;2.35;;;17.10;99.90;;;;;;10099646;28;20510;-72
2023/09/26 02:09:51;;;;;;;5.00;3.13;;;17.20;99.90;;;;;;10102198;28;20029;-72
2023/09/26 02:14:42;;;;;;;3.78;2.30;;;17.30;99.90;;;;;;10082064;28;20049;-73
2023/09/26 02:19:33;;;;;;;2.63;1.90;;;17.10;99.90;;;;;;10096391;28;20032;-71
2023/09/26 02:24:23;;;;;;;2.53;1.73;;;17.00;99.90;;;;;;10093612;28;20036;-72
2023/09/26 02:29:14;;;;;;;3.10;2.17;;;16.90;99.90;;;;;;10082748;28;20254;-71
2023/09/26 02:34:04;;;;;;;5.18;2.20;;;16.80;99.90;;;;;;10086197;28;20116;-72
2023/09/26 02:38:56;;;;;;;3.30;2.10;;;16.70;99.90;;;;;;10093375;28;20029;-71
2023/09/26 02:43:49;;;;;;;2.67;1.83;;;16.70;99.90;;;;;;10097342;28;20029;-71
2023/09/26 02:48:40;;;;;;;3.40;2.20;;;16.60;99.90;;;;;;10090786;28;20025;-71
2023/09/26 02:53:31;;;;;;;4.07;2.70;;;16.50;99.90;;;;;;10083651;28;20598;-72
2023/09/26 02:58:22;;;;;;;2.35;1.60;;;16.50;99.90;;;;;;10085707;28;20040;-72
2023/09/26 03:03:12;;;;;;;4.60;1.58;;;16.60;99.90;;;;;;10083021;28;20282;-71
2023/09/26 03:08:03;;;;;;;5.22;2.22;;;16.50;99.90;;;;;;10091772;28;20024;-71
2023/09/26 03:12:54;;;;;;;3.92;2.17;;;16.50;99.90;;;;;;10081001;28;20040;-71
2023/09/26 03:17:45;;;;;;;4.75;2.10;;;16.50;99.90;;;;;;10078620;28;20069;-71
2023/09/26 03:22:36;;;;;;;2.72;1.90;;;16.60;99.90;;;;;;10081922;28;20403;-71
2023/09/26 03:27:26;;;;;;;2.50;2.08;;;16.50;99.90;;;;;;10080351;28;20033;-72
2023/09/26 03:32:17;;;;;;;2.30;1.80;;;16.40;99.90;;;;;;10074159;28;20034;-72
2023/09/26 03:37:08;;;;;;;4.35;2.25;;;16.50;99.90;;;;;;10082264;28;20032;-72
2023/09/26 03:41:59;;;;;;;2.70;1.98;;;16.50;99.90;;;;;;10095573;28;20441;-72
2023/09/26 03:46:49;;;;;;;4.35;2.08;;;16.40;99.90;;;;;;10090384;28;20041;-71
2023/09/26 03:51:40;;;;;;;3.38;2.30;;;16.30;99.90;;;;;;10087365;28;20045;-72
2023/09/26 03:56:31;;;;;;;3.33;2.05;;;16.30;99.90;;;;;;10080074;28;20120;-72
2023/09/26 04:01:22;;;;;;;3.28;1.95;;;16.30;99.90;;;;;;10097195;28;20108;-72
2023/09/26 04:06:13;;;;;;;3.60;2.03;;;16.20;99.90;;;;;;10095950;28;20037;-72
2023/09/26 04:11:04;;;;;;;4.80;2.50;;;16.10;99.90;;;;;;10094876;28;20032;-72
2023/09/26 04:15:55;;;;;;;4.55;2.78;;;16.00;99.90;;;;;;10083922;28;20033;-73
2023/09/26 04:20:45;;;;;;;3.70;2.42;;;16.10;99.90;;;;;;10080112;28;20080;-72
2023/09/26 04:25:36;;;;;;;5.03;2.42;;;16.10;99.90;;;;;;10075357;28;20097;-71
2023/09/26 04:30:27;;;;;;;6.93;2.58;;;16.00;99.90;;;;;;10087794;28;20029;-71
2023/09/26 04:35:18;;;;;;;3.35;2.42;;;16.00;99.90;;;;;;10082069;28;20137;-71
2023/09/26 04:40:10;;;;;;;3.55;1.90;;;16.10;99.90;;;;;;10092380;28;20024;-72
2023/09/26 04:45:01;;;;;;;2.95;1.67;;;15.90;99.90;;;;;;10089038;28;20036;-72
2023/09/26 04:49:52;;;;;;;6.15;2.88;;;15.90;99.90;;;;;;10094958;28;20033;-72
2023/09/26 04:54:42;;;;;;;4.43;2.72;;;15.90;99.90;;;;;;10085594;28;20267;-72
2023/09/26 04:59:33;;;;;;;3.20;1.83;;;15.80;99.90;;;;;;10093727;28;20326;-71
2023/09/26 05:04:25;;;;;;;3.95;2.90;;;15.80;99.90;;;;;;10092896;28;20052;-71
2023/09/26 05:09:15;;;;;;;3.22;1.85;;;15.80;99.90;;;;;;10099450;28;20542;-71
2023/09/26 05:14:06;;;;;;;4.25;2.40;;;15.60;99.90;;;;;;10091245;28;20100;-71
2023/09/26 05:18:57;;;;;;;2.83;2.50;;;15.80;99.90;;;;;;10090460;28;20034;-73
2023/09/26 05:23:47;;;;;;;3.45;2.38;;;15.60;99.90;;;;;;10092337;28;20422;-71
2023/09/26 05:28:42;;;;;;;4.75;2.13;;;15.60;99.90;;;;;;10089839;28;20053;-71
2023/09/26 05:33:33;;;;;;;5.07;2.37;;;15.60;99.90;;;;;;10086780;28;20021;-72
2023/09/26 05:38:25;;;;;;;4.05;2.08;;;15.70;99.90;;;;;;10100078;28;20106;-72
2023/09/26 05:43:16;;;;;;;4.55;2.83;;;15.70;99.90;;;;;;10099611;28;20032;-71
2023/09/26 05:48:07;;;;;;;3.28;2.25;;;15.60;99.90;;;;;;10096324;28;20029;-71
2023/09/26 05:52:58;;;;;;;4.97;2.13;;;15.60;99.90;;;;;;10093642;28;20049;-71
2023/09/26 05:57:49;;;;;;;3.90;2.55;;;15.60;99.90;;;;;;10088289;28;20468;-72
2023/09/26 06:02:39;;;;;;;2.90;2.13;;;15.60;99.90;;;;;;10097169;28;20043;-72
2023/09/26 06:07:30;;;;;;;3.72;2.40;;;15.50;99.90;;;;;;10095170;28;20108;-72
2023/09/26 06:12:21;;;;;;;4.22;2.58;;;15.40;99.90;;;;;;10093648;28;20045;-71
2023/09/26 06:17:12;;;;;;;3.58;2.10;;;15.40;99.90;;;;;;10087748;28;20073;-71
2023/09/26 06:22:02;;;;;;;3.83;2.20;;;15.60;99.90;;;;;;10088073;28;20459;-71
2023/09/26 06:26:53;;;;;;;3.08;1.88;;;15.60;99.90;;;;;;10082584;28;20515;-72
2023/09/26 06:31:43;;;;;;;5.22;2.08;;;15.60;99.90;;;;;;10079853;28;20033;-71
2023/09/26 06:36:34;;;;;;;3.75;2.42;;;15.60;99.90;;;;;;10086910;28;20116;-70
2023/09/26 06:41:26;;;;;;;3.78;2.40;;;15.60;99.90;;;;;;10081831;28;20060;-71
2023/09/26 06:46:16;;;;;;;5.50;2.20;;;15.50;99.90;;;;;;10075884;28;20503;-71
2023/09/26 06:51:08;;;;;;;9.93;2.40;;;15.60;99.90;;;;;;10082882;28;20036;-70
2023/09/26 06:56:04;;;;;;;4.05;2.55;;;15.50;99.90;;;;;;10072771;28;20036;-71
2023/09/26 07:00:55;;;;;;;2.83;2.15;;;15.60;99.90;;;;;;10087864;28;20029;-72
2023/09/26 07:05:45;;;;;;;3.25;2.35;;;15.80;99.90;;;;;;10092648;28;20037;-72
2023/09/26 07:10:40;;;;;;;4.95;2.80;;;15.80;99.90;;;;;;10090160;28;20032;-74
2023/09/26 07:15:33;;;;;;;6.82;4.15;;;16.00;99.90;;;;;;10081976;28;20542;-72
2023/09/26 07:20:27;;;;;;;8.15;3.28;;;16.00;99.90;;;;;;10081652;28;20527;-72
2023/09/26 07:25:17;;;;;;;5.55;3.78;;;16.10;99.90;;;;;;10073526;28;20037;-73
2023/09/26 07:30:09;;;;;;;5.82;2.78;;;16.10;99.90;;;;;;10075847;28;20017;-72
2023/09/26 07:34:59;;;;;;;4.95;2.80;;;16.10;99.90;;;;;;10081994;28;20047;-72
2023/09/26 07:39:51;;;;;;;10.50;4.43;;;16.30;99.90;;;;;;10089367;28;20025;-73
2023/09/26 07:44:42;;;;;;;4.38;3.00;;;16.40;99.90;;;;;;10087840;28;20124;-73
2023/09/26 07:49:33;;;;;;;4.90;3.15;;;16.30;99.90;;;;;;10085929;28;20104;-72
2023/09/26 07:54:23;;;;;;;3.03;2.63;;;16.30;99.90;;;;;;10092022;28;20052;-72
2023/09/26 07:59:14;;;;;;;5.25;2.90;;;16.40;99.90;;;;;;10092441;28;20044;-72
2023/09/26 08:04:06;;;;;;;4.32;2.53;;;16.40;99.90;;;;;;10103603;28;20025;-72
2023/09/26 08:09:03;;;;;;;5.82;2.88;;;16.50;99.90;;;;;;10094635;28;20256;-73
2023/09/26 08:13:55;;;;;;;6.20;2.92;;;16.60;99.90;;;;;;10092616;28;20040;-72
2023/09/26 08:18:46;;;;;;;5.47;2.72;;;16.60;99.90;;;;;;10088045;28;20525;-71
2023/09/26 08:23:36;;;;;;;5.55;2.40;;;16.70;99.90;;;;;;10084204;28;20033;-72
2023/09/26 08:28:31;;;;;;;5.32;2.30;;;16.80;99.90;;;;;;10092823;28;20037;-72
2023/09/26 08:33:28;;;;;;;5.05;2.40;;;16.80;99.90;;;;;;10093004;28;20127;-72
2023/09/26 08:38:19;;;;;;;4.75;2.70;;;16.90;99.90;;;;;;10089302;28;20044;-72
2023/09/26 08:43:14;;;;;;;2.80;1.98;;;16.90;99.90;;;;;;10096992;28;20021;-73
2023/09/26 08:48:05;;;;;;;4.70;2.33;;;16.90;99.90;;;;;;10094389;28;20437;-73
2023/09/26 08:52:58;;;;;;;5.75;3.25;;;17.00;99.90;;;;;;10079799;28;20460;-72
2023/09/26 08:57:51;;;;;;;6.68;3.88;;;16.90;99.90;;;;;;10093783;28;20045;-72
2023/09/26 09:02:41;;;;;;;10.07;2.78;;;17.00;99.90;;;;;;10096263;28;20032;-71
2023/09/26 09:07:32;;;;;;;4.03;2.65;;;17.00;99.90;;;;;;10093096;28;20113;-72
2023/09/26 09:12:23;;;;;;;4.43;2.72;;;17.10;99.90;;;;;;10096368;28;20025;-73
2023/09/26 09:17:14;;;;;;;5.43;3.55;;;17.10;99.90;;;;;;10093859;28;20056;-73
2023/09/26 09:22:15;;;;;;;5.70;3.00;;;17.10;99.90;;;;;;10088949;28;20029;-73
2023/09/26 09:27:06;;;;;;;6.68;3.53;;;17.20;99.90;;;;;;10090055;28;20029;-74
2023/09/26 09:31:57;;;;;;;7.75;3.85;;;17.30;99.90;;;;;;10081545;28;20486;-71
2023/09/26 09:36:47;;;;;;;8.57;3.05;;;17.30;99.90;;;;;;10076344;28;20154;-72
2023/09/26 09:41:38;;;;;;;4.38;2.80;;;17.30;99.90;;;;;;10092378;28;20049;-73
2023/09/26 09:46:33;;;;;;;4.55;2.63;;;17.40;99.90;;;;;;10087485;28;20499;-73
2023/09/26 09:51:25;;;;;;;4.85;2.47;;;17.40;99.90;;;;;;10085464;28;20120;-73
2023/09/26 09:56:19;;;;;;;4.43;2.60;;;17.50;99.90;;;;;;10081940;28;20053;-73
2023/09/26 10:01:12;;;;;;;3.95;2.30;;;17.60;99.90;;;;;;10092037;28;20060;-73
2023/09/26 10:06:06;;;;;;;4.38;2.20;;;17.60;99.90;;;;;;10093517;28;20043;-73
2023/09/26 10:10:58;;;;;;;5.43;2.05;;;17.70;99.90;;;;;;10091288;28;20031;-72
2023/09/26 10:16:11;;;;;;;3.30;1.73;;;17.80;99.90;;;;;;10088111;28;20045;-73
2023/09/26 10:21:03;;;;;;;2.83;1.60;;;17.80;99.90;;;;;;10082087;28;20028;-73
2023/09/26 10:25:54;;;;;;;3.35;2.10;;;17.90;99.90;;;;;;10089780;28;20029;-72
2023/09/26 10:30:44;;;;;;;3.28;2.40;;;17.90;99.90;;;;;;10070704;28;20091;-70
2023/09/26 10:35:44;;;;;;;2.28;1.88;;;17.90;99.90;;;;;;10092197;28;20097;-71
2023/09/26 10:40:35;;;;;;;2.70;2.20;;;17.90;99.90;;;;;;10087652;28;20124;-71
2023/09/26 10:45:26;;;;;;;2.20;2.00;;;18.00;99.90;;;;;;10086177;28;20128;-72
2023/09/26 10:50:16;;;;;;;4.25;2.20;;;18.00;99.90;;;;;;10084171;28;20029;-69
2023/09/26 10:55:10;;;;;;;2.88;1.73;;;18.00;99.90;;;;;;10084076;28;20047;-73
2023/09/26 11:00:09;;;;;;;3.92;2.25;;;18.00;99.90;;;;;;10083943;28;20036;-74
2023/09/26 11:05:08;;;;;;;5.95;2.20;;;18.10;99.90;;;;;;10077359;28;20619;-72
2023/09/26 11:09:59;;;;;;;2.67;1.60;;;18.20;99.90;;;;;;10089055;28;20041;-76
2023/09/26 11:14:54;;;;;;;2.25;1.73;;;18.20;99.90;;;;;;10090554;28;20300;-73
2023/09/26 11:19:44;;;;;;;3.13;1.60;;;18.30;99.90;;;;;;10081562;28;20163;-76
2023/09/26 11:24:35;;;;;;;3.58;1.67;;;18.30;99.90;;;;;;10082552;28;20176;-73
2023/09/26 11:29:26;;;;;;;3.38;1.85;;;18.30;99.90;;;;;;10084222;28;20036;-75
2023/09/26 11:34:17;;;;;;;2.10;1.40;;;18.30;99.90;;;;;;10077319;28;20588;-76
2023/09/26 11:39:14;;;;;;;4.53;1.73;;;18.40;99.90;;;;;;10079803;28;20036;-75
2023/09/26 11:44:10;;;;;;;2.00;1.60;;;18.50;99.90;;;;;;10085212;28;20128;-75
2023/09/26 11:49:02;;;;;;;2.38;1.70;;;18.60;99.90;;;;;;10089503;28;20021;-73
2023/09/26 11:53:52;;;;;;;2.17;1.50;;;18.70;99.90;;;;;;10085381;28;20065;-68
2023/09/26 11:58:43;;;;;;;2.38;1.58;;;18.70;99.90;;;;;;10090402;28;20029;-68
2023/09/26 12:03:34;;;;;;;3.55;1.50;;;18.80;99.90;;;;;;10078650;28;20152;-68
2023/09/26 12:08:27;;;;;;;2.95;1.80;;;18.90;99.90;;;;;;10080244;28;20037;-72
2023/09/26 12:13:18;;;;;;;7.07;1.98;;;18.90;99.90;;;;;;10079218;28;20120;-73
2023/09/26 12:18:09;;;;;;;2.90;1.90;;;19.10;99.90;;;;;;10078368;28;20033;-73
2023/09/26 12:23:00;;;;;;;3.45;2.50;;;19.20;99.90;;;;;;10078239;28;20099;-72
2023/09/26 12:27:52;;;;;;;7.18;3.22;;;19.40;99.90;;;;;;10076134;28;20392;-73
2023/09/26 12:32:43;;;;;;;3.80;2.17;;;19.50;99.90;;;;;;10078720;28;20256;-74
2023/09/26 12:37:33;;;;;;;3.65;2.00;;;19.60;99.90;;;;;;10083281;28;20489;-74
2023/09/26 12:42:25;;;;;;;5.30;2.40;;;19.70;99.90;;;;;;10091207;28;20503;-73
2023/09/26 12:47:16;;;;;;;5.50;2.10;;;19.90;99.90;;;;;;10084700;28;20029;-71
2023/09/26 12:52:06;;;;;;;2.85;1.80;;;20.00;99.90;;;;;;10073023;28;20061;-73
2023/09/26 12:57:01;;;;;;;4.60;1.92;;;20.20;99.90;;;;;;10078272;28;20068;-73
2023/09/26 13:01:52;;;;;;;5.60;2.05;;;20.30;99.90;;;;;;10091529;28;20076;-74
2023/09/26 13:06:43;;;;;;;2.55;1.40;;;20.40;99.90;;;;;;10080903;28;20047;-71
2023/09/26 13:11:34;;;;;;;4.35;1.73;;;20.50;99.90;;;;;;10086030;28;20038;-73
2023/09/26 13:16:25;;;;;;;4.45;1.90;;;20.60;99.90;;;;;;10076500;28;20048;-71
2023/09/26 13:21:17;;;;;;;6.30;2.80;;;20.80;99.90;;;;;;10078023;28;20067;-70
2023/09/26 13:26:08;;;;;;;6.30;3.08;;;20.90;99.90;;;;;;10091047;28;20025;-75
2023/09/26 13:30:59;;;;;;;8.02;4.00;;;21.00;99.90;;;;;;10086418;28;20518;-71
2023/09/26 13:35:50;;;;;;;6.28;3.05;;;21.10;99.90;;;;;;10099287;28;20564;-71
2023/09/26 13:40:42;;;;;;;6.35;2.35;;;21.30;99.90;;;;;;10098620;28;20086;-71
2023/09/26 13:45:33;;;;;;;2.80;2.10;;;21.50;99.90;;;;;;10089740;28;20029;-70
2023/09/26 13:50:24;;;;;;;2.83;1.65;;;21.50;99.90;;;;;;10093024;28;20478;-70
2023/09/26 13:55:15;;;;;;;5.43;2.65;;;21.80;99.90;;;;;;10088265;28;20044;-70
2023/09/26 14:00:08;;;;;;;5.13;1.55;;;22.10;99.90;;;;;;10081641;28;20033;-72
2023/09/26 14:04:59;;;;;;;1.80;1.40;;;22.20;99.90;;;;;;10093189;28;20390;-75
2023/09/26 14:09:50;;;;;;;2.85;1.50;;;22.40;99.90;;;;;;10085163;28;20029;-70
2023/09/26 14:14:41;;;;;;;3.80;1.70;;;22.50;99.90;;;;;;10093282;28;20060;-72
2023/09/26 14:19:32;;;;;;;3.97;2.00;;;22.70;99.90;;;;;;10090148;28;20052;-73
2023/09/26 14:24:23;;;;;;;4.38;2.35;;;22.80;99.90;;;;;;10091102;28;20032;-72
2023/09/26 14:29:14;;;;;;;4.38;2.42;;;23.00;99.90;;;;;;10081222;28;20025;-76
2023/09/26 14:34:05;;;;;;;3.72;2.33;;;23.20;99.90;;;;;;10077214;28;20025;-74
2023/09/26 14:38:56;;;;;;;2.22;1.52;;;23.30;99.90;;;;;;10088979;28;20044;-72
2023/09/26 14:43:46;;;;;;;3.75;1.80;;;23.50;99.90;;;;;;10089515;28;20032;-74
2023/09/26 14:48:37;;;;;;;2.40;1.52;;;23.70;99.90;;;;;;10094248;28;20440;-74
2023/09/26 14:53:28;;;;;;;3.80;2.35;;;23.80;99.90;;;;;;10085877;28;20044;-73
2023/09/26 14:58:19;;;;;;;2.60;1.67;;;24.10;99.90;;;;;;10079208;28;20029;-72
2023/09/26 15:03:10;;;;;;;4.05;1.80;;;24.20;99.90;;;;;;10081838;28;20041;-73
2023/09/26 15:08:01;;;;;;;4.50;1.92;;;24.40;99.90;;;;;;10091859;28;20036;-72
2023/09/26 15:12:52;;;;;;;4.38;1.70;;;24.50;99.90;;;;;;10087412;28;20055;-69
2023/09/26 15:17:43;;;;;;;3.80;1.50;;;24.70;99.90;;;;;;10084869;28;20040;-71
2023/09/26 15:22:33;;;;;;;4.90;2.47;;;24.80;99.90;;;;;;10089699;28;20107;-69
2023/09/26 15:27:24;;;;;;;3.63;1.52;;;24.90;99.90;;;;;;10084547;28;20095;-70
2023/09/26 15:32:15;;;;;;;4.75;2.50;;;25.10;99.90;;;;;;10079526;28;20115;-72
2023/09/26 15:37:06;;;;;;;3.85;1.67;;;25.20;99.90;;;;;;10088182;28;20127;-74
2023/09/26 15:41:57;;;;;;;2.38;1.30;;;25.20;99.90;;;;;;10087546;28;20072;-72
2023/09/26 15:46:51;;;;;;;2.05;1.75;;;25.40;99.90;;;;;;10084493;28;20033;-72
2023/09/26 15:51:42;;;;;;;4.33;1.63;;;25.50;99.90;;;;;;10088563;28;20052;-72
2023/09/26 15:56:32;;;;;;;2.97;1.73;;;25.50;99.90;;;;;;10085973;28;20291;-72
2023/09/26 16:01:23;;;;;;;4.60;1.98;;;25.60;99.90;;;;;;10089424;28;20029;-75
2023/09/26 16:06:14;;;;;;;2.53;1.73;;;25.70;99.90;;;;;;10085873;28;20040;-74
2023/09/26 16:11:05;;;;;;;3.13;2.13;;;25.80;99.90;;;;;;10086518;28;20508;-74
2023/09/26 16:15:56;;;;;;;6.18;3.35;;;25.60;99.90;;;;;;10090978;28;20518;-74
2023/09/26 16:20:47;;;;;;;5.07;3.35;;;25.10;99.90;;;;;;10083070;28;20061;-70
2023/09/26 16:25:39;;;;;;;4.57;2.70;;;24.80;99.90;;;;;;10086120;28;20507;-73
2023/09/26 16:30:31;;;;;;;3.45;1.85;;;24.60;99.90;;;;;;10089211;28;20541;-71
2023/09/26 16:35:22;;;;;;;11.85;6.65;;;24.50;99.90;;;;;;10073213;28;20093;-74
2023/09/26 16:40:12;;;;;;;35.40;21.15;;;24.40;99.90;;;;;;10081731;28;20021;-76
2023/09/26 16:45:04;;;;;;;23.48;15.15;;;24.50;99.90;;;;;;10086302;28;20290;-71
2023/09/26 16:49:54;;;;;;;412.52;244.27;;;24.50;99.90;;;;;;10090116;28;20033;-71
2023/09/26 16:54:45;;;;;;;103.28;61.17;;;24.30;99.90;;;;;;10079496;28;20530;-75
2023/09/26 16:59:36;;;;;;;252.48;144.82;;;24.30;99.90;;;;;;10074357;28;20554;-75
2023/09/26 17:04:27;;;;;;;42.63;24.60;;;24.40;99.90;;;;;;10100991;28;20033;-77
2023/09/26 17:09:18;;;;;;;17.65;10.02;;;24.30;99.90;;;;;;10096684;28;20019;-72
2023/09/26 17:14:23;;;;;;;11.57;6.75;;;24.20;99.90;;;;;;10097465;28;20033;-73
2023/09/26 17:19:13;;;;;;;13.13;6.13;;;24.10;99.90;;;;;;10096648;28;20025;-70
2023/09/26 17:24:04;;;;;;;11.10;5.50;;;24.10;99.90;;;;;;10099780;28;20490;-66
2023/09/26 17:28:55;;;;;;;11.65;4.88;;;24.00;99.90;;;;;;10095793;28;20074;-68
2023/09/26 17:33:45;;;;;;;9.18;4.45;;;23.90;99.90;;;;;;10089952;28;20033;-68
2023/09/26 17:38:41;;;;;;;5.78;2.83;;;23.80;99.90;;;;;;10093930;28;20124;-68
2023/09/26 17:43:32;;;;;;;4.72;3.80;;;23.70;99.90;;;;;;10093075;28;20119;-71
2023/09/26 17:48:22;;;;;;;3.97;2.60;;;23.60;99.90;;;;;;10087284;28;20546;-69
2023/09/26 17:53:13;;;;;;;6.28;3.58;;;23.60;99.90;;;;;;10086847;28;20501;-75
2023/09/26 17:58:03;;;;;;;9.45;4.03;;;23.60;99.90;;;;;;10090899;28;20045;-73
2023/09/26 18:02:54;;;;;;;9.48;4.32;;;23.50;99.90;;;;;;10097401;28;20029;-69
2023/09/26 18:07:46;;;;;;;9.43;4.60;;;23.40;99.90;;;;;;10088640;28;20256;-71
2023/09/26 18:12:37;;;;;;;8.00;3.92;;;23.30;99.90;;;;;;10085234;28;20465;-69
2023/09/26 18:17:27;;;;;;;86.03;50.75;;;23.20;99.90;;;;;;10080878;28;20087;-71
2023/09/26 18:22:18;;;;;;;66.20;39.70;;;23.30;99.90;;;;;;10086386;28;20105;-68
2023/09/26 18:27:10;;;;;;;13.45;8.20;;;23.40;99.90;;;;;;10085879;28;20040;-67
2023/09/26 18:32:00;;;;;;;8.77;4.90;;;23.30;99.90;;;;;;10083448;28;20554;-67
2023/09/26 18:36:51;;;;;;;7.78;4.75;;;23.30;99.90;;;;;;10089436;28;20124;-69
2023/09/26 18:41:42;;;;;;;6.45;4.22;;;23.20;99.90;;;;;;10093243;28;20150;-68
2023/09/26 18:46:32;;;;;;;7.13;3.72;;;23.00;99.90;;;;;;10079480;28;20029;-72
2023/09/26 18:51:23;;;;;;;5.70;3.50;;;23.00;99.90;;;;;;10083183;28;20402;-66
2023/09/26 18:56:14;;;;;;;8.48;4.03;;;22.90;99.90;;;;;;10078326;28;20052;-64
2023/09/26 19:01:04;;;;;;;10.68;5.00;;;22.90;99.90;;;;;;10086938;28;20395;-68
2023/09/26 19:05:59;;;;;;;8.80;5.35;;;22.80;99.90;;;;;;10093406;28;20514;-72
2023/09/26 19:10:52;;;;;;;13.52;5.90;;;22.80;99.90;;;;;;10092295;28;20040;-68
2023/09/26 19:15:43;;;;;;;9.13;4.82;;;22.80;99.90;;;;;;10085872;28;20032;-68
2023/09/26 19:20:39;;;;;;;18.13;6.07;;;22.70;99.90;;;;;;10097973;28;20074;-68
2023/09/26 19:25:32;;;;;;;12.13;5.45;;;22.60;99.90;;;;;;10085856;28;20444;-73
2023/09/26 19:30:26;;;;;;;9.27;5.20;;;22.60;99.90;;;;;;10082038;28;20017;-70
2023/09/26 19:35:17;;;;;;;9.63;5.38;;;22.50;99.90;;;;;;10080308;28;20060;-75
2023/09/26 19:40:08;;;;;;;9.55;5.75;;;22.40;99.90;;;;;;10091239;28;20044;-74
2023/09/26 19:44:59;;;;;;;12.52;7.57;;;22.40;99.90;;;;;;10083995;28;20029;-71
2023/09/26 19:49:50;;;;;;;16.08;7.60;;;22.30;99.90;;;;;;10093567;28;20056;-70
2023/09/26 19:54:41;;;;;;;14.70;7.57;;;22.30;99.90;;;;;;10086731;28;20549;-66
2023/09/26 19:59:31;;;;;;;17.85;7.10;;;22.20;99.90;;;;;;10099904;28;20033;-70
2023/09/26 20:04:22;;;;;;;13.15;6.85;;;22.20;99.90;;;;;;10088964;28;20047;-68
2023/09/26 20:09:13;;;;;;;15.13;9.18;;;22.20;99.90;;;;;;10088149;28;20544;-71
2023/09/26 20:14:04;;;;;;;99.32;59.40;;;22.10;99.90;;;;;;10088569;28;20025;-70
2023/09/26 20:18:54;;;;;;;97.32;57.55;;;22.10;99.90;;;;;;10085022;28;20025;-71
2023/09/26 20:23:46;;;;;;;28.58;17.27;;;22.10;99.90;;;;;;10074450;28;20043;-71
2023/09/26 20:28:37;;;;;;;15.70;9.07;;;22.10;99.90;;;;;;10094078;28;20071;-75
2023/09/26 20:33:28;;;;;;;15.23;8.50;;;22.00;99.90;;;;;;10088083;28;20025;-74
2023/09/26 20:38:18;;;;;;;14.23;8.07;;;21.90;99.90;;;;;;10093966;28;20041;-70
2023/09/26 20:43:09;;;;;;;13.43;6.47;;;21.80;99.90;;;;;;10094940;28;20029;-72
2023/09/26 20:48:02;;;;;;;17.30;7.72;;;21.80;99.90;;;;;;10085698;28;20060;-73
2023/09/26 20:52:53;;;;;;;15.23;8.65;;;21.70;99.90;;;;;;10092703;28;20105;-71
2023/09/26 20:57:43;;;;;;;83.80;47.05;;;21.70;99.90;;;;;;10091909;28;20583;-71
2023/09/26 21:02:34;;;;;;;59.25;33.38;;;21.90;99.90;;;;;;10098969;28;20052;-70
2023/09/26 21:07:25;;;;;;;59.20;30.60;;;21.90;99.90;;;;;;10094383;28;20166;-73
2023/09/26 21:12:15;;;;;;;30.58;15.35;;;22.00;99.90;;;;;;10091249;28;20087;-76
2023/09/26 21:17:09;;;;;;;14.65;7.35;;;21.90;99.90;;;;;;10097475;28;20045;-75
2023/09/26 21:21:59;;;;;;;11.50;6.88;;;21.80;99.90;;;;;;10099438;28;20031;-74
2023/09/26 21:26:50;;;;;;;11.18;6.10;;;21.80;99.90;;;;;;10098943;28;20032;-75
2023/09/26 21:31:41;;;;;;;12.15;7.15;;;21.70;99.90;;;;;;10100296;28;20031;-73
2023/09/26 21:36:31;;;;;;;14.13;9.52;;;21.50;99.90;;;;;;10098488;28;20040;-72
2023/09/26 21:41:22;;;;;;;12.75;6.75;;;21.30;99.90;;;;;;10105572;28;20025;-74
2023/09/26 21:46:13;;;;;;;8.98;4.15;;;21.40;99.90;;;;;;10093794;28;20742;-73
2023/09/26 21:51:04;;;;;;;6.45;3.92;;;21.40;99.90;;;;;;10090331;28;20025;-73
2023/09/26 21:55:55;;;;;;;6.82;3.92;;;21.30;99.90;;;;;;10094409;28;20041;-73
2023/09/26 22:00:47;;;;;;;7.03;4.05;;;21.20;99.90;;;;;;10099123;28;20029;-73
2023/09/26 22:05:37;;;;;;;7.70;3.38;;;21.10;99.90;;;;;;10099092;28;20119;-75
2023/09/26 22:10:29;;;;;;;7.47;3.13;;;21.10;99.90;;;;;;10092003;28;20108;-75
2023/09/26 22:15:20;;;;;;;6.50;3.65;;;21.10;99.90;;;;;;10098247;28;20455;-75
2023/09/26 22:20:13;;;;;;;5.07;2.65;;;21.10;99.90;;;;;;10090081;28;20589;-74
2023/09/26 22:25:05;;;;;;;4.47;2.75;;;21.00;99.90;;;;;;10091030;28;20483;-74
2023/09/26 22:29:56;;;;;;;4.53;2.25;;;20.90;99.90;;;;;;10094394;28;20029;-74
2023/09/26 22:34:46;;;;;;;3.90;2.75;;;20.90;99.90;;;;;;10086210;28;20044;-73
2023/09/26 22:39:37;;;;;;;5.63;3.20;;;20.80;99.90;;;;;;10084366;28;20041;-73
2023/09/26 22:44:30;;;;;;;3.70;2.90;;;20.80;99.90;;;;;;10089499;28;20037;-75
2023/09/26 22:49:21;;;;;;;5.75;2.83;;;20.70;99.90;;;;;;10080595;28;20032;-72
2023/09/26 22:54:15;;;;;;;4.13;2.33;;;20.70;99.90;;;;;;10098298;28;20465;-73
2023/09/26 22:59:06;;;;;;;3.50;2.40;;;20.70;99.90;;;;;;10092774;28;20041;-73
2023/09/26 23:03:57;;;;;;;5.40;2.90;;;20.60;99.90;;;;;;10096042;28;20025;-74
2023/09/26 23:08:47;;;;;;;5.88;2.45;;;20.50;99.90;;;;;;10090570;28;20025;-73
2023/09/26 23:13:38;;;;;;;3.72;2.58;;;20.30;99.90;;;;;;10088723;28;20479;-74
2023/09/26 23:18:29;;;;;;;3.38;2.20;;;20.40;99.90;;;;;;10091067;28;20052;-73
2023/09/26 23:23:22;;;;;;;3.42;2.15;;;20.30;99.90;;;;;;10090824;28;20066;-74
2023/09/26 23:28:16;;;;;;;6.05;3.53;;;20.30;99.90;;;;;;10086582;28;20080;-73
2023/09/26 23:33:07;;;;;;;4.73;2.50;;;20.30;99.90;;;;;;10094287;28;20465;-73
2023/09/26 23:38:06;;;;;;;4.45;2.90;;;20.10;99.90;;;;;;10087556;28;20066;-75
2023/09/26 23:42:56;;;;;;;4.78;2.45;;;20.10;99.90;;;;;;10088679;28;20085;-73
2023/09/26 23:47:47;;;;;;;6.68;3.30;;;20.20;99.90;;;;;;10095845;28;20132;-73
2023/09/26 23:52:41;;;;;;;5.93;3.40;;;20.10;99.90;;;;;;10094941;28;20102;-73
2023/09/26 23:57:32;;;;;;;4.22;3.00;;;20.10;99.90;;;;;;10085127;28;20132;-72
